createdAt,value
2022-10-20T00:01:16.142Z,8.20
2022-10-20T00:03:43.471Z,8.20
2022-10-20T00:06:13.349Z,8.20
2022-10-20T00:08:41.576Z,8.20
2022-10-20T00:11:09.865Z,8.30
2022-10-20T00:13:36.950Z,8.10
2022-10-20T00:16:04.275Z,8.20
2022-10-20T00:18:31.124Z,8.20
2022-10-20T00:20:57.899Z,8.10
2022-10-20T00:23:24.744Z,8.20
2022-10-20T00:26:10.632Z,8.20
2022-10-20T00:28:37.679Z,8.20
2022-10-20T00:31:05.068Z,8.20
2022-10-20T00:33:32.775Z,8.20
2022-10-20T00:36:00.668Z,8.20
2022-10-20T00:38:27.457Z,8.20
2022-10-20T00:40:54.205Z,8.20
2022-10-20T00:43:21.394Z,8.20
2022-10-20T00:45:55.884Z,8.20
2022-10-20T00:48:28.053Z,8.20
2022-10-20T00:50:56.599Z,8.20
2022-10-20T00:53:26.663Z,8.20
2022-10-20T00:55:55.589Z,8.30
2022-10-20T00:58:22.582Z,8.20
2022-10-20T01:00:52.099Z,8.20
2022-10-20T01:03:32.031Z,8.20
2022-10-20T01:05:58.695Z,8.20
2022-10-20T01:08:25.487Z,8.20
2022-10-20T01:11:15.923Z,8.20
2022-10-20T01:14:04.498Z,8.10
2022-10-20T01:16:59.381Z,8.20
2022-10-20T01:19:44.853Z,8.10
2022-10-20T01:22:49.454Z,8.10
2022-10-20T01:25:34.313Z,8.10
2022-10-20T01:28:22.782Z,8.00
2022-10-20T01:30:56.995Z,8.00
2022-10-20T01:33:40.261Z,8.00
2022-10-20T01:36:15.729Z,7.90
2022-10-20T01:39:10.217Z,7.90
2022-10-20T01:41:46.211Z,7.90
2022-10-20T01:44:16.218Z,7.80
2022-10-20T01:46:44.368Z,8.00
2022-10-20T01:49:13.299Z,7.90
2022-10-20T01:54:27.201Z,7.90
2022-10-20T01:57:05.566Z,7.90
2022-10-20T01:59:47.671Z,7.90
2022-10-20T02:02:20.030Z,7.80
2022-10-20T02:05:01.828Z,7.90
2022-10-20T02:07:30.692Z,7.90
2022-10-20T02:10:12.386Z,7.90
2022-10-20T02:12:41.923Z,7.90
2022-10-20T02:15:13.274Z,7.80
2022-10-20T02:17:41.910Z,7.80
2022-10-20T02:20:10.011Z,7.90
2022-10-20T02:22:39.376Z,7.80
2022-10-20T02:25:07.188Z,7.80
2022-10-20T02:27:37.324Z,7.80
2022-10-20T02:30:11.252Z,7.90
2022-10-20T02:32:40.647Z,7.80
2022-10-20T02:35:10.641Z,7.80
2022-10-20T02:37:37.716Z,7.80
2022-10-20T02:40:05.270Z,7.80
2022-10-20T02:42:32.043Z,7.80
2022-10-20T02:44:58.680Z,7.80
2022-10-20T02:47:25.324Z,7.80
2022-10-20T02:49:52.027Z,7.80
2022-10-20T02:52:18.724Z,7.80
2022-10-20T02:54:45.690Z,7.80
2022-10-20T02:57:12.364Z,7.90
2022-10-20T02:59:39.036Z,7.80
2022-10-20T03:02:05.768Z,7.80
2022-10-20T03:04:32.540Z,7.90
2022-10-20T03:06:59.207Z,7.90
2022-10-20T03:09:25.902Z,7.80
2022-10-20T03:11:52.542Z,7.70
2022-10-20T03:14:19.234Z,7.80
2022-10-20T03:16:45.866Z,7.80
2022-10-20T03:19:12.532Z,7.80
2022-10-20T03:21:39.295Z,7.80
2022-10-20T03:24:06.152Z,7.80
2022-10-20T03:26:32.886Z,7.80
2022-10-20T03:28:59.541Z,7.80
2022-10-20T03:31:26.371Z,7.80
2022-10-20T03:33:53.095Z,7.80
2022-10-20T03:36:19.966Z,7.80
2022-10-20T03:38:46.739Z,7.80
2022-10-20T03:41:13.408Z,7.90
2022-10-20T03:43:40.522Z,7.90
2022-10-20T03:46:09.593Z,7.90
2022-10-20T03:48:37.191Z,7.90
2022-10-20T03:51:05.014Z,7.90
2022-10-20T03:53:31.754Z,7.90
2022-10-20T03:55:58.492Z,7.90
2022-10-20T03:58:25.166Z,7.90
2022-10-20T04:00:52.228Z,7.90
2022-10-20T04:03:18.863Z,8.00
2022-10-20T04:05:45.605Z,7.90
2022-10-20T04:08:12.319Z,7.90
2022-10-20T04:10:39.004Z,7.90
2022-10-20T04:13:05.690Z,7.90
2022-10-20T04:15:32.534Z,8.00
2022-10-20T04:17:59.281Z,8.00
2022-10-20T04:20:25.967Z,8.00
2022-10-20T04:22:52.632Z,8.00
2022-10-20T04:25:19.364Z,8.00
2022-10-20T04:27:46.227Z,8.10
2022-10-20T04:30:13.001Z,8.10
2022-10-20T04:32:39.667Z,8.10
2022-10-20T04:35:06.887Z,8.10
2022-10-20T04:37:34.016Z,8.20
2022-10-20T04:40:01.024Z,8.20
2022-10-20T04:42:27.660Z,8.10
2022-10-20T04:44:54.398Z,8.20
2022-10-20T04:47:21.084Z,8.30
2022-10-20T04:49:47.722Z,8.30
2022-10-20T04:52:14.447Z,8.30
2022-10-20T04:54:41.071Z,8.30
2022-10-20T04:57:07.733Z,8.30
2022-10-20T04:59:34.433Z,8.30
2022-10-20T05:02:01.221Z,8.30
2022-10-20T05:04:27.947Z,8.40
2022-10-20T05:06:54.592Z,8.40
2022-10-20T05:09:21.252Z,8.50
2022-10-20T05:11:47.905Z,8.40
2022-10-20T05:14:14.635Z,8.50
2022-10-20T05:16:41.277Z,8.60
2022-10-20T05:19:07.980Z,8.60
2022-10-20T05:21:34.771Z,8.60
2022-10-20T05:24:04.288Z,8.70
2022-10-20T05:26:34.761Z,8.80
2022-10-20T05:29:04.083Z,8.90
2022-10-20T05:31:31.138Z,9.00
2022-10-20T05:33:57.858Z,9.00
2022-10-20T05:36:26.111Z,9.20
2022-10-20T05:38:54.350Z,9.30
2022-10-20T05:41:32.140Z,9.20
2022-10-20T05:44:04.569Z,9.30
2022-10-20T05:46:33.890Z,9.30
2022-10-20T05:49:02.804Z,9.30
2022-10-20T05:51:31.944Z,9.30
2022-10-20T05:53:59.498Z,9.30
2022-10-20T05:56:27.566Z,9.30
2022-10-20T05:58:55.024Z,9.40
2022-10-20T06:01:25.473Z,9.50
2022-10-20T06:04:00.088Z,9.50
2022-10-20T06:06:29.540Z,9.50
2022-10-20T06:08:58.475Z,9.50
2022-10-20T06:11:26.164Z,9.50
2022-10-20T06:13:53.551Z,9.50
2022-10-20T06:16:23.285Z,9.50
2022-10-20T06:18:50.387Z,9.50
2022-10-20T06:21:23.222Z,9.60
2022-10-20T06:23:50.162Z,9.50
2022-10-20T06:26:19.863Z,9.50
2022-10-20T06:28:48.774Z,9.60
2022-10-20T06:31:22.138Z,9.60
2022-10-20T06:33:49.622Z,9.60
2022-10-20T06:36:17.364Z,9.60
2022-10-20T06:38:44.544Z,9.60
2022-10-20T06:41:15.006Z,9.60
2022-10-20T06:43:42.593Z,9.70
2022-10-20T06:46:12.959Z,9.70
2022-10-20T06:48:39.745Z,9.70
2022-10-20T06:51:11.774Z,9.70
2022-10-20T06:53:42.680Z,9.70
2022-10-20T06:56:18.262Z,9.70
2022-10-20T06:58:47.266Z,9.70
2022-10-20T07:01:17.406Z,9.70
2022-10-20T07:03:45.882Z,9.80
2022-10-20T07:06:20.540Z,9.80
2022-10-20T07:08:48.045Z,9.80
2022-10-20T07:11:17.751Z,9.80
2022-10-20T07:13:46.034Z,9.90
2022-10-20T07:16:15.156Z,9.90
2022-10-20T07:18:41.887Z,9.90
2022-10-20T07:21:12.727Z,9.90
2022-10-20T07:23:39.941Z,9.90
2022-10-20T07:26:10.776Z,9.90
2022-10-20T07:28:39.754Z,10.00
2022-10-20T07:31:09.528Z,10.00
2022-10-20T07:33:36.218Z,10.10
2022-10-20T07:36:11.979Z,10.10
2022-10-20T07:38:38.935Z,10.20
2022-10-20T07:41:05.722Z,10.20
2022-10-20T07:43:32.473Z,10.30
2022-10-20T07:45:59.096Z,10.30
2022-10-20T07:48:25.812Z,10.30
2022-10-20T07:50:52.455Z,10.30
2022-10-20T07:53:19.143Z,10.30
2022-10-20T07:55:45.984Z,10.40
2022-10-20T07:58:12.870Z,10.40
2022-10-20T08:03:11.169Z,10.50
2022-10-20T08:05:37.840Z,10.60
2022-10-20T08:08:04.660Z,10.60
2022-10-20T08:10:31.356Z,10.60
2022-10-20T08:12:57.994Z,10.70
2022-10-20T08:15:24.663Z,10.70
2022-10-20T08:17:51.318Z,10.80
2022-10-20T08:20:24.888Z,10.90
2022-10-20T08:22:53.804Z,10.90
2022-10-20T08:25:20.549Z,11.00
2022-10-20T08:27:47.249Z,11.10
2022-10-20T08:30:26.671Z,11.20
2022-10-20T08:32:54.123Z,11.20
2022-10-20T08:35:21.986Z,11.30
2022-10-20T08:37:48.956Z,11.30
2022-10-20T08:40:22.342Z,11.40
2022-10-20T08:42:49.887Z,11.40
2022-10-20T08:45:20.290Z,11.50
2022-10-20T08:47:49.313Z,11.60
2022-10-20T08:50:17.953Z,11.70
2022-10-20T08:52:47.142Z,11.80
2022-10-20T08:55:33.803Z,11.90
2022-10-20T08:58:13.007Z,11.90
2022-10-20T09:00:40.674Z,12.00
2022-10-20T09:03:21.819Z,12.00
2022-10-20T09:05:54.042Z,12.10
2022-10-20T09:08:24.682Z,12.10
2022-10-20T09:10:54.120Z,12.20
2022-10-20T09:13:27.518Z,12.30
2022-10-20T09:16:40.986Z,12.30
2022-10-20T09:19:18.237Z,12.40
2022-10-20T09:21:47.761Z,12.40
2022-10-20T09:24:14.510Z,12.40
2022-10-20T09:26:57.940Z,12.40
2022-10-20T09:29:36.395Z,12.40
2022-10-20T09:32:16.777Z,12.40
2022-10-20T09:34:49.813Z,12.40
2022-10-20T09:37:19.728Z,12.40
2022-10-20T09:39:47.159Z,12.40
2022-10-20T09:42:29.787Z,12.50
2022-10-20T09:45:05.855Z,12.50
2022-10-20T09:47:34.456Z,12.60
2022-10-20T09:50:04.256Z,12.70
2022-10-20T09:52:35.354Z,12.70
2022-10-20T09:55:07.349Z,12.80
2022-10-20T09:57:34.816Z,12.80
2022-10-20T10:00:13.492Z,12.80
2022-10-20T10:02:48.588Z,12.80
2022-10-20T10:05:19.243Z,12.80
2022-10-20T10:07:57.900Z,12.90
2022-10-20T10:10:27.328Z,13.00
2022-10-20T10:12:57.286Z,13.00
2022-10-20T10:15:43.693Z,13.00
2022-10-20T10:18:21.456Z,13.10
2022-10-20T10:20:56.655Z,13.20
2022-10-20T10:23:26.384Z,13.20
2022-10-20T10:25:53.659Z,13.20
2022-10-20T10:28:35.723Z,13.30
2022-10-20T10:31:08.682Z,13.30
2022-10-20T10:33:35.884Z,13.40
2022-10-20T10:36:07.324Z,13.40
2022-10-20T10:38:36.183Z,13.40
2022-10-20T10:41:25.114Z,13.50
2022-10-20T10:43:57.686Z,13.60
2022-10-20T10:46:31.507Z,13.60
2022-10-20T10:49:26.405Z,13.60
2022-10-20T10:52:12.409Z,13.60
2022-10-20T10:55:00.589Z,13.60
2022-10-20T10:57:44.269Z,13.60
2022-10-20T11:00:33.888Z,13.50
2022-10-20T11:03:12.590Z,13.50
2022-10-20T11:05:47.002Z,13.50
2022-10-20T11:08:33.526Z,13.40
2022-10-20T11:11:38.010Z,13.40
2022-10-20T11:14:40.643Z,13.40
2022-10-20T11:17:20.141Z,13.40
2022-10-20T11:20:15.115Z,13.40
2022-10-20T11:23:15.815Z,13.40
2022-10-20T11:25:51.549Z,13.30
2022-10-20T11:28:37.132Z,13.40
2022-10-20T11:31:04.722Z,13.30
2022-10-20T11:33:41.916Z,13.40
2022-10-20T11:36:17.798Z,13.40
2022-10-20T11:38:51.155Z,13.40
2022-10-20T11:41:30.042Z,13.40
2022-10-20T11:44:15.680Z,13.40
2022-10-20T11:46:52.098Z,13.40
2022-10-20T11:49:19.350Z,13.50
2022-10-20T11:52:23.567Z,13.40
2022-10-20T11:55:23.918Z,13.50
2022-10-20T11:58:37.209Z,13.50
2022-10-20T12:01:22.342Z,13.50
2022-10-20T12:04:23.292Z,13.50
2022-10-20T12:07:07.526Z,13.50
2022-10-20T12:09:49.000Z,13.50
2022-10-20T12:12:57.516Z,13.50
2022-10-20T12:15:27.722Z,13.50
2022-10-20T12:17:58.218Z,13.40
2022-10-20T12:20:24.844Z,13.50
2022-10-20T12:22:52.528Z,13.50
2022-10-20T12:25:25.159Z,13.50
2022-10-20T12:28:19.824Z,13.50
2022-10-20T12:31:01.325Z,13.50
2022-10-20T12:33:49.152Z,13.60
2022-10-20T12:36:18.856Z,13.70
2022-10-20T12:38:48.697Z,13.70
2022-10-20T12:41:30.291Z,13.80
2022-10-20T12:44:04.608Z,13.90
2022-10-20T12:46:34.108Z,13.90
2022-10-20T12:49:11.042Z,13.90
2022-10-20T12:51:48.677Z,13.90
2022-10-20T12:54:24.771Z,13.80
2022-10-20T12:56:54.112Z,13.90
2022-10-20T12:59:29.654Z,13.90
2022-10-20T13:02:08.468Z,14.00
2022-10-20T13:05:14.671Z,14.00
2022-10-20T13:07:50.207Z,14.10
2022-10-20T13:10:31.679Z,14.10
2022-10-20T13:13:01.342Z,14.20
2022-10-20T13:15:38.776Z,14.30
2022-10-20T13:18:11.812Z,14.40
2022-10-20T13:20:38.567Z,14.50
2022-10-20T13:23:05.859Z,14.60
2022-10-20T13:25:53.958Z,14.70
2022-10-20T13:28:24.653Z,14.90
2022-10-20T13:31:16.636Z,15.00
2022-10-20T13:34:03.937Z,15.30
2022-10-20T13:36:51.652Z,15.30
2022-10-20T13:39:41.115Z,15.50
2022-10-20T13:42:19.773Z,15.40
2022-10-20T13:44:52.507Z,15.50
2022-10-20T13:47:32.707Z,15.40
2022-10-20T13:50:10.880Z,15.40
2022-10-20T13:52:45.155Z,15.40
2022-10-20T13:55:27.022Z,15.40
2022-10-20T13:57:59.554Z,15.50
2022-10-20T14:00:31.554Z,15.50
2022-10-20T14:03:04.250Z,15.50
2022-10-20T14:05:38.424Z,15.40
2022-10-20T14:08:14.348Z,15.40
2022-10-20T14:10:48.302Z,15.40
2022-10-20T14:13:18.680Z,15.40
2022-10-20T14:15:52.087Z,15.40
2022-10-20T14:18:26.507Z,15.40
2022-10-20T14:21:14.379Z,15.40
2022-10-20T14:23:44.239Z,15.50
2022-10-20T14:26:21.679Z,15.50
2022-10-20T14:28:52.715Z,15.50
2022-10-20T14:31:24.275Z,15.50
2022-10-20T14:33:52.569Z,15.60
2022-10-20T14:36:22.215Z,15.60
2022-10-20T14:38:54.799Z,15.70
2022-10-20T14:41:39.724Z,15.70
2022-10-20T14:44:14.692Z,15.70
2022-10-20T14:46:47.965Z,15.80
2022-10-20T14:49:22.676Z,15.70
2022-10-20T14:52:20.393Z,15.60
2022-10-20T14:54:49.735Z,15.70
2022-10-20T14:57:16.395Z,15.70
2022-10-20T14:59:59.174Z,15.70
2022-10-20T15:02:33.151Z,15.70
2022-10-20T15:05:24.704Z,15.70
2022-10-20T15:07:53.402Z,15.70
2022-10-20T15:10:27.236Z,15.80
2022-10-20T15:12:55.712Z,15.70
2022-10-20T15:15:25.363Z,15.70
2022-10-20T15:18:08.719Z,15.70
2022-10-20T15:20:39.507Z,15.70
2022-10-20T15:23:12.088Z,15.70
2022-10-20T15:26:01.327Z,15.70
2022-10-20T15:28:38.716Z,15.70
2022-10-20T15:31:16.000Z,15.70
2022-10-20T15:33:42.740Z,15.60
2022-10-20T15:36:21.766Z,15.60
2022-10-20T15:38:49.647Z,15.50
2022-10-20T15:41:22.355Z,15.50
2022-10-20T15:43:49.259Z,15.40
2022-10-20T15:46:17.278Z,15.40
2022-10-20T15:48:44.482Z,15.40
2022-10-20T15:51:17.421Z,15.40
2022-10-20T15:53:49.371Z,15.40
2022-10-20T15:56:17.343Z,15.30
2022-10-20T15:58:44.366Z,15.20
2022-10-20T16:01:16.697Z,15.20
2022-10-20T16:03:43.883Z,15.10
2022-10-20T16:06:13.437Z,15.00
2022-10-20T16:08:41.384Z,15.00
2022-10-20T16:11:09.071Z,14.90
2022-10-20T16:13:38.343Z,14.90
2022-10-20T16:16:06.130Z,14.90
2022-10-20T16:18:32.886Z,14.80
2022-10-20T16:21:00.282Z,14.70
2022-10-20T16:23:27.399Z,14.70
2022-10-20T16:25:54.058Z,14.60
2022-10-20T16:28:20.758Z,14.60
2022-10-20T16:30:47.403Z,14.50
2022-10-20T16:33:14.044Z,14.50
2022-10-20T16:35:44.564Z,14.40
2022-10-20T16:38:11.410Z,14.30
2022-10-20T16:40:38.100Z,14.30
2022-10-20T16:43:04.750Z,14.30
2022-10-20T16:45:31.442Z,14.20
2022-10-20T16:47:58.108Z,14.20
2022-10-20T16:50:24.878Z,14.20
2022-10-20T16:52:51.587Z,14.10
2022-10-20T16:55:18.282Z,14.10
2022-10-20T16:57:44.954Z,14.10
2022-10-20T17:00:12.302Z,14.10
2022-10-20T17:02:40.250Z,14.00
2022-10-20T17:05:09.368Z,14.00
2022-10-20T17:07:36.769Z,13.90
2022-10-20T17:10:03.825Z,13.80
2022-10-20T17:12:30.508Z,13.70
2022-10-20T17:14:57.119Z,13.70
2022-10-20T17:17:25.068Z,13.70
2022-10-20T17:19:51.751Z,13.70
2022-10-20T17:22:18.429Z,13.70
2022-10-20T17:24:45.416Z,13.70
2022-10-20T17:27:12.052Z,13.80
2022-10-20T17:29:38.683Z,13.80
2022-10-20T17:32:05.701Z,13.80
2022-10-20T17:34:32.487Z,13.90
2022-10-20T17:36:59.178Z,13.90
2022-10-20T17:39:25.856Z,13.90
2022-10-20T17:41:52.495Z,13.90
2022-10-20T17:44:19.196Z,13.90
2022-10-20T17:46:45.909Z,13.90
2022-10-20T17:49:12.618Z,13.90
2022-10-20T17:51:39.261Z,13.90
2022-10-20T17:54:06.098Z,13.90
2022-10-20T17:56:36.264Z,13.80
2022-10-20T17:59:05.541Z,13.90
2022-10-20T18:01:35.500Z,13.90
2022-10-20T18:04:09.003Z,13.90
2022-10-20T18:06:36.776Z,14.00
2022-10-20T18:09:12.844Z,13.90
2022-10-20T18:11:42.345Z,13.90
2022-10-20T18:14:09.127Z,14.00
2022-10-20T18:16:37.839Z,13.90
2022-10-20T18:19:05.336Z,13.90
2022-10-20T18:21:32.957Z,13.90
2022-10-20T18:24:02.517Z,13.90
2022-10-20T18:26:30.907Z,13.80
2022-10-20T18:28:59.310Z,13.90
2022-10-20T18:31:28.826Z,13.80
2022-10-20T18:33:58.202Z,13.80
2022-10-20T18:36:27.608Z,13.80
2022-10-20T18:38:54.948Z,13.70
2022-10-20T18:41:24.824Z,13.70
2022-10-20T18:43:58.248Z,13.70
2022-10-20T18:46:26.722Z,13.60
2022-10-20T18:48:53.644Z,13.70
2022-10-20T18:51:20.431Z,13.70
2022-10-20T18:53:47.652Z,13.70
2022-10-20T18:56:18.741Z,13.60
2022-10-20T18:58:56.706Z,13.70
2022-10-20T19:01:35.214Z,13.70
2022-10-20T19:04:03.432Z,13.70
2022-10-20T19:06:36.574Z,13.70
2022-10-20T19:09:07.096Z,13.70
2022-10-20T19:11:35.674Z,13.60
2022-10-20T19:14:02.624Z,13.50
2022-10-20T19:16:31.892Z,13.60
2022-10-20T19:19:00.468Z,13.40
2022-10-20T19:21:28.897Z,13.50
2022-10-20T19:24:09.240Z,13.50
2022-10-20T19:26:52.458Z,13.40
2022-10-20T19:29:31.432Z,13.50
2022-10-20T19:32:00.654Z,13.40
2022-10-20T19:34:30.543Z,13.50
2022-10-20T19:36:57.906Z,13.40
2022-10-20T19:39:30.214Z,13.30
2022-10-20T19:41:59.657Z,13.30
2022-10-20T19:44:27.348Z,13.30
2022-10-20T19:46:54.450Z,13.30
2022-10-20T19:49:22.947Z,13.30
2022-10-20T19:51:50.086Z,13.30
2022-10-20T19:54:16.823Z,13.30
2022-10-20T19:56:43.794Z,13.20
2022-10-20T19:59:10.886Z,13.20
2022-10-20T20:01:37.916Z,13.10
2022-10-20T20:04:06.216Z,13.10
2022-10-20T20:06:33.992Z,13.10
2022-10-20T20:09:02.444Z,13.10
2022-10-20T20:11:30.962Z,13.00
2022-10-20T20:14:01.136Z,12.90
2022-10-20T20:16:28.817Z,12.90
2022-10-20T20:18:55.807Z,13.00
2022-10-20T20:21:23.280Z,13.00
2022-10-20T20:23:59.428Z,13.00
2022-10-20T20:26:28.311Z,13.00
2022-10-20T20:28:55.595Z,13.00
2022-10-20T20:31:23.085Z,13.00
2022-10-20T20:33:50.263Z,13.00
2022-10-20T20:36:17.453Z,13.10
2022-10-20T20:38:44.409Z,13.00
2022-10-20T20:41:14.138Z,13.00
2022-10-20T20:43:40.896Z,13.00
2022-10-20T20:46:17.918Z,13.00
2022-10-20T20:48:45.368Z,12.90
2022-10-20T20:51:13.590Z,12.90
2022-10-20T20:53:40.811Z,12.80
2022-10-20T20:56:10.416Z,12.70
2022-10-20T20:58:37.733Z,12.80
2022-10-20T21:01:17.185Z,12.60
2022-10-20T21:03:44.348Z,12.60
2022-10-20T21:06:14.008Z,12.70
2022-10-20T21:08:42.831Z,12.70
2022-10-20T21:11:18.166Z,12.70
2022-10-20T21:13:48.383Z,12.70
2022-10-20T21:16:34.216Z,12.70
2022-10-20T21:19:04.771Z,12.80
2022-10-20T21:21:33.823Z,12.80
2022-10-20T21:24:01.961Z,12.80
2022-10-20T21:26:30.053Z,12.90
2022-10-20T21:28:57.353Z,12.90
2022-10-20T21:31:25.764Z,13.00
2022-10-20T21:33:55.175Z,13.00
2022-10-20T21:36:22.551Z,13.10
2022-10-20T21:38:49.816Z,13.00
2022-10-20T21:41:22.119Z,13.10
2022-10-20T21:43:51.285Z,13.10
2022-10-20T21:46:23.749Z,13.10
2022-10-20T21:48:51.576Z,13.10
2022-10-20T21:51:24.214Z,13.20
2022-10-20T21:53:58.219Z,13.10
2022-10-20T21:56:25.041Z,13.10
2022-10-20T21:58:52.897Z,13.10
2022-10-20T22:01:21.838Z,13.10
2022-10-20T22:03:49.757Z,13.00
2022-10-20T22:06:19.140Z,13.10
2022-10-20T22:08:47.575Z,13.00
2022-10-20T22:11:17.392Z,12.90
2022-10-20T22:13:44.352Z,12.80
2022-10-20T22:16:15.984Z,12.80
2022-10-20T22:18:42.710Z,12.70
2022-10-20T22:21:15.723Z,12.70
2022-10-20T22:23:43.571Z,12.70
2022-10-20T22:26:10.970Z,12.80
2022-10-20T22:28:38.162Z,12.70
2022-10-20T22:31:06.645Z,12.80
2022-10-20T22:33:33.528Z,12.80
2022-10-20T22:36:00.318Z,12.70
2022-10-20T22:38:26.993Z,12.80
2022-10-20T22:40:58.529Z,12.80
2022-10-20T22:43:25.859Z,12.80
2022-10-20T22:45:52.594Z,12.90
2022-10-20T22:48:19.336Z,12.80
2022-10-20T22:50:46.161Z,12.80
2022-10-20T22:53:12.971Z,12.80
2022-10-20T22:55:39.677Z,12.70
2022-10-20T22:58:06.501Z,12.60
2022-10-20T23:00:33.172Z,12.70
2022-10-20T23:02:59.815Z,12.60
2022-10-20T23:05:26.562Z,12.60
2022-10-20T23:07:53.223Z,12.50
2022-10-20T23:10:19.941Z,12.30
2022-10-20T23:12:46.600Z,12.30
2022-10-20T23:15:13.269Z,12.30
2022-10-20T23:17:40.152Z,12.30
2022-10-20T23:20:07.248Z,12.40
2022-10-20T23:22:34.011Z,12.30
2022-10-20T23:25:02.111Z,12.40
2022-10-20T23:27:28.828Z,12.40
2022-10-20T23:29:55.531Z,12.50
2022-10-20T23:32:22.233Z,12.60
2022-10-20T23:34:48.850Z,12.60
2022-10-20T23:37:19.454Z,12.70
2022-10-20T23:39:46.468Z,12.70
2022-10-20T23:42:13.181Z,12.80
2022-10-20T23:44:40.076Z,12.90
2022-10-20T23:47:06.712Z,12.80
2022-10-20T23:49:33.377Z,12.90
2022-10-20T23:52:00.003Z,12.90
2022-10-20T23:54:26.748Z,13.00
2022-10-20T23:56:53.395Z,13.00
2022-10-20T23:59:20.059Z,13.00
